createdAt,value
2019-03-22T00:00:50.399Z,57.10
2019-03-22T00:03:24.008Z,56.90
2019-03-22T00:05:57.413Z,56.70
2019-03-22T00:08:30.850Z,56.30
2019-03-22T00:11:04.208Z,56.40
2019-03-22T00:13:37.941Z,56.60
2019-03-22T00:16:11.201Z,56.60
2019-03-22T00:18:44.626Z,56.30
2019-03-22T00:21:18.087Z,56.00
2019-03-22T00:23:51.277Z,55.70
2019-03-22T00:26:24.768Z,55.90
2019-03-22T00:28:58.111Z,56.00
2019-03-22T00:31:31.559Z,56.20
2019-03-22T00:34:04.928Z,56.30
2019-03-22T00:36:38.313Z,56.60
2019-03-22T00:39:11.564Z,56.80
2019-03-22T00:41:45.170Z,57.00
2019-03-22T00:44:18.562Z,57.30
2019-03-22T00:46:52.044Z,57.50
2019-03-22T00:49:25.859Z,57.50
2019-03-22T00:51:59.238Z,57.50
2019-03-22T00:54:32.562Z,57.70
2019-03-22T00:57:07.581Z,57.40
2019-03-22T00:59:40.852Z,57.50
2019-03-22T01:02:14.206Z,57.20
2019-03-22T01:04:47.674Z,57.30
2019-03-22T01:07:22.483Z,57.10
2019-03-22T01:09:55.881Z,57.20
2019-03-22T01:12:29.139Z,57.40
2019-03-22T01:15:02.874Z,57.50
2019-03-22T01:17:36.135Z,57.50
2019-03-22T01:20:10.411Z,58.20
2019-03-22T01:22:43.797Z,58.70
2019-03-22T01:25:17.523Z,58.80
2019-03-22T01:27:51.110Z,60.10
2019-03-22T01:30:24.615Z,60.30
2019-03-22T01:32:58.040Z,61.20
2019-03-22T01:35:31.576Z,61.60
2019-03-22T01:38:05.324Z,62.00
2019-03-22T01:40:38.677Z,62.80
2019-03-22T01:43:12.234Z,63.30
2019-03-22T01:45:45.945Z,63.80
2019-03-22T01:48:19.302Z,63.70
2019-03-22T01:50:52.620Z,64.10
2019-03-22T01:53:25.875Z,63.60
2019-03-22T01:55:59.383Z,63.40
2019-03-22T01:58:33.509Z,63.20
2019-03-22T02:01:06.948Z,62.90
2019-03-22T02:03:40.391Z,63.20
2019-03-22T02:06:13.794Z,63.30
2019-03-22T02:08:47.436Z,64.50
2019-03-22T02:11:20.803Z,66.40
2019-03-22T02:13:54.013Z,67.40
2019-03-22T02:16:27.554Z,69.10
2019-03-22T02:19:01.183Z,69.60
2019-03-22T02:21:34.462Z,71.00
2019-03-22T02:24:09.293Z,71.60
2019-03-22T02:26:42.679Z,72.30
2019-03-22T02:29:16.094Z,73.00
2019-03-22T02:32:08.676Z,73.00
2019-03-22T02:34:42.050Z,72.90
2019-03-22T02:37:15.258Z,72.70
2019-03-22T02:39:48.669Z,72.50
2019-03-22T02:42:22.122Z,72.10
2019-03-22T02:44:55.494Z,71.60
2019-03-22T02:47:28.738Z,72.30
2019-03-22T02:50:11.624Z,71.90
2019-03-22T02:52:37.007Z,71.60
2019-03-22T02:55:10.902Z,71.60
2019-03-22T02:57:44.478Z,72.00
2019-03-22T03:00:19.118Z,72.90
2019-03-22T03:02:52.471Z,73.80
2019-03-22T03:05:26.170Z,74.50
2019-03-22T03:07:59.576Z,75.10
2019-03-22T03:10:32.900Z,75.50
2019-03-22T03:13:06.395Z,75.70
2019-03-22T03:15:39.667Z,75.80
2019-03-22T03:18:12.991Z,75.70
2019-03-22T03:20:46.552Z,76.20
2019-03-22T03:23:19.815Z,75.60
2019-03-22T03:25:53.319Z,74.80
2019-03-22T03:28:36.846Z,74.80
2019-03-22T03:31:02.003Z,74.30
2019-03-22T03:33:35.659Z,73.50
2019-03-22T03:36:09.116Z,73.40
2019-03-22T03:38:42.410Z,72.90
2019-03-22T03:41:15.689Z,73.10
2019-03-22T03:43:49.132Z,73.80
2019-03-22T03:46:22.639Z,74.00
2019-03-22T03:48:55.872Z,74.10
2019-03-22T03:51:29.997Z,75.10
2019-03-22T03:54:03.170Z,74.10
2019-03-22T03:56:36.590Z,73.30
2019-03-22T03:59:10.121Z,73.80
2019-03-22T04:01:43.833Z,73.30
2019-03-22T04:04:17.170Z,73.80
2019-03-22T04:06:50.456Z,73.80
2019-03-22T04:09:23.667Z,74.30
2019-03-22T04:11:57.307Z,74.50
2019-03-22T04:14:30.860Z,75.50
2019-03-22T04:17:04.009Z,76.00
2019-03-22T04:19:37.552Z,76.20
2019-03-22T04:22:10.879Z,76.50
2019-03-22T04:24:44.308Z,75.70
2019-03-22T04:27:17.686Z,76.70
2019-03-22T04:29:51.331Z,76.30
2019-03-22T04:32:24.837Z,75.20
2019-03-22T04:34:58.223Z,74.50
2019-03-22T04:37:31.541Z,74.40
2019-03-22T04:40:06.288Z,74.10
2019-03-22T04:42:40.041Z,75.10
2019-03-22T04:45:13.522Z,75.20
2019-03-22T04:47:48.554Z,76.20
2019-03-22T04:50:22.950Z,77.20
2019-03-22T04:52:57.836Z,78.30
2019-03-22T04:55:33.601Z,79.50
2019-03-22T04:58:09.792Z,79.90
2019-03-22T05:00:44.695Z,78.80
2019-03-22T05:03:28.816Z,77.50
2019-03-22T05:06:04.882Z,77.20
2019-03-22T05:08:41.143Z,76.80
2019-03-22T05:11:16.222Z,77.50
2019-03-22T05:13:53.914Z,77.90
2019-03-22T05:16:27.630Z,77.50
2019-03-22T05:19:04.417Z,76.90
2019-03-22T05:21:38.685Z,76.40
2019-03-22T05:24:13.179Z,76.20
2019-03-22T05:26:50.431Z,77.00
2019-03-22T05:29:30.895Z,75.00
2019-03-22T05:32:06.952Z,74.60
2019-03-22T05:34:40.205Z,74.30
2019-03-22T05:37:13.732Z,74.50
2019-03-22T05:39:46.900Z,74.20
2019-03-22T05:42:20.403Z,73.60
2019-03-22T05:44:54.555Z,71.60
2019-03-22T05:47:27.971Z,69.70
2019-03-22T05:50:01.371Z,69.80
2019-03-22T05:52:34.808Z,70.10
2019-03-22T05:55:09.045Z,66.10
2019-03-22T05:57:42.403Z,64.60
2019-03-22T06:00:17.361Z,63.30
2019-03-22T06:02:51.393Z,63.60
2019-03-22T06:05:24.642Z,62.40
2019-03-22T06:07:58.185Z,61.40
2019-03-22T06:10:31.957Z,60.30
2019-03-22T06:13:05.310Z,59.70
2019-03-22T06:15:38.761Z,59.90
2019-03-22T06:18:11.907Z,59.40
2019-03-22T06:20:45.227Z,58.70
2019-03-22T06:23:18.665Z,57.70
2019-03-22T06:25:51.915Z,57.20
2019-03-22T06:28:25.867Z,56.40
2019-03-22T06:30:59.985Z,56.00
2019-03-22T06:33:33.248Z,54.40
2019-03-22T06:36:06.743Z,54.70
2019-03-22T06:38:40.149Z,55.20
2019-03-22T06:41:13.613Z,54.20
2019-03-22T06:43:47.145Z,53.20
2019-03-22T06:46:20.303Z,52.60
2019-03-22T06:48:53.634Z,52.60
2019-03-22T06:51:27.002Z,51.20
2019-03-22T06:54:00.198Z,51.00
2019-03-22T06:56:33.768Z,51.30
2019-03-22T06:59:07.004Z,52.10
2019-03-22T07:01:40.264Z,53.00
2019-03-22T07:04:13.348Z,50.00
2019-03-22T07:06:46.719Z,49.00
2019-03-22T07:09:19.839Z,48.60
2019-03-22T07:11:53.031Z,48.30
2019-03-22T07:14:26.428Z,48.10
2019-03-22T07:16:59.743Z,46.90
2019-03-22T07:19:33.102Z,47.20
2019-03-22T07:22:06.371Z,46.30
2019-03-22T07:24:39.884Z,46.50
2019-03-22T07:27:13.552Z,46.70
2019-03-22T07:29:46.957Z,46.40
2019-03-22T07:32:20.438Z,47.00
2019-03-22T07:34:53.493Z,46.80
2019-03-22T07:37:26.775Z,45.70
2019-03-22T07:40:00.049Z,46.00
2019-03-22T07:42:33.968Z,47.30
2019-03-22T07:45:07.832Z,46.20
2019-03-22T07:47:41.112Z,45.90
2019-03-22T07:50:14.858Z,45.30
2019-03-22T07:52:48.263Z,45.10
2019-03-22T07:55:21.809Z,44.40
2019-03-22T07:57:55.433Z,43.50
2019-03-22T08:00:30.936Z,42.00
2019-03-22T08:03:03.749Z,41.00
2019-03-22T08:05:37.525Z,40.60
2019-03-22T08:08:10.817Z,39.40
2019-03-22T08:10:44.000Z,38.90
2019-03-22T08:13:17.436Z,38.40
2019-03-22T08:15:50.733Z,38.50
2019-03-22T08:18:24.211Z,38.10
2019-03-22T08:20:57.437Z,38.50
2019-03-22T08:23:30.753Z,38.10
2019-03-22T08:26:04.142Z,37.60
2019-03-22T08:28:37.496Z,37.70
2019-03-22T08:31:10.903Z,36.10
2019-03-22T08:33:44.225Z,35.50
2019-03-22T08:36:17.523Z,35.20
2019-03-22T08:38:50.928Z,35.60
2019-03-22T08:41:42.566Z,37.20
2019-03-22T08:44:15.910Z,37.50
2019-03-22T08:46:49.157Z,37.40
2019-03-22T08:49:22.574Z,37.10
2019-03-22T08:51:55.929Z,36.90
2019-03-22T08:54:29.207Z,37.80
2019-03-22T08:57:02.702Z,37.20
2019-03-22T08:59:36.016Z,37.40
2019-03-22T09:02:28.058Z,36.50
2019-03-22T09:05:01.481Z,36.20
2019-03-22T09:07:34.814Z,34.80
2019-03-22T09:10:10.258Z,34.40
2019-03-22T09:12:44.066Z,34.10
2019-03-22T09:15:17.687Z,33.80
2019-03-22T09:17:51.082Z,34.00
2019-03-22T09:20:24.505Z,33.40
2019-03-22T09:22:57.788Z,33.30
2019-03-22T09:25:31.393Z,33.60
2019-03-22T09:28:04.791Z,33.50
2019-03-22T09:30:38.161Z,32.90
2019-03-22T09:33:13.381Z,32.20
2019-03-22T09:35:46.482Z,31.90
2019-03-22T09:38:20.394Z,31.70
2019-03-22T09:40:53.810Z,32.30
2019-03-22T09:43:27.379Z,32.40
2019-03-22T09:46:01.923Z,32.90
2019-03-22T09:48:35.221Z,32.10
2019-03-22T09:51:11.636Z,32.20
2019-03-22T09:53:45.160Z,31.30
2019-03-22T09:56:18.600Z,31.50
2019-03-22T09:58:51.879Z,32.10
2019-03-22T10:01:25.473Z,32.70
2019-03-22T10:04:01.926Z,33.10
2019-03-22T10:06:46.148Z,33.60
2019-03-22T10:09:29.954Z,34.20
2019-03-22T10:12:03.508Z,34.20
2019-03-22T10:14:55.451Z,34.50
2019-03-22T10:17:28.777Z,34.90
2019-03-22T10:20:02.318Z,34.80
2019-03-22T10:22:35.497Z,33.40
2019-03-22T10:25:09.465Z,33.80
2019-03-22T10:27:42.831Z,34.30
2019-03-22T10:30:16.623Z,34.80
2019-03-22T10:32:49.892Z,33.40
2019-03-22T10:35:26.389Z,33.50
2019-03-22T10:38:00.882Z,33.00
2019-03-22T10:40:33.419Z,32.90
2019-03-22T10:43:06.459Z,33.40
2019-03-22T10:45:39.710Z,33.60
2019-03-22T10:48:13.173Z,33.60
2019-03-22T10:50:46.390Z,34.00
2019-03-22T10:53:19.817Z,33.30
2019-03-22T10:55:53.129Z,32.80
2019-03-22T10:58:26.502Z,32.30
2019-03-22T11:00:59.922Z,33.60
2019-03-22T11:03:33.851Z,33.60
2019-03-22T11:06:07.746Z,34.10
2019-03-22T11:08:41.347Z,33.60
2019-03-22T11:11:14.642Z,33.50
2019-03-22T11:13:47.857Z,32.90
2019-03-22T11:16:21.142Z,33.20
2019-03-22T11:18:54.472Z,33.80
2019-03-22T11:21:27.917Z,33.10
2019-03-22T11:24:01.284Z,32.90
2019-03-22T11:26:34.542Z,33.30
2019-03-22T11:29:08.198Z,32.60
2019-03-22T11:31:42.065Z,33.10
2019-03-22T11:34:16.235Z,33.40
2019-03-22T11:36:49.641Z,33.10
2019-03-22T11:39:22.907Z,33.50
2019-03-22T11:41:56.201Z,33.60
2019-03-22T11:44:29.761Z,33.70
2019-03-22T11:47:03.040Z,33.30
2019-03-22T11:49:36.465Z,33.20
2019-03-22T11:52:10.364Z,34.00
2019-03-22T11:54:43.800Z,34.40
2019-03-22T11:57:17.127Z,34.30
2019-03-22T11:59:50.699Z,34.40
2019-03-22T12:02:24.515Z,35.00
2019-03-22T12:04:57.810Z,35.20
2019-03-22T12:07:31.382Z,35.30
2019-03-22T12:10:05.021Z,35.70
2019-03-22T12:12:38.592Z,35.90
2019-03-22T12:15:12.461Z,35.80
2019-03-22T12:17:45.732Z,36.30
2019-03-22T12:20:19.801Z,35.40
2019-03-22T12:22:53.245Z,35.70
2019-03-22T12:25:27.022Z,36.00
2019-03-22T12:28:00.472Z,35.70
2019-03-22T12:30:33.915Z,37.10
2019-03-22T12:33:07.240Z,37.40
2019-03-22T12:35:42.555Z,38.10
2019-03-22T12:38:15.594Z,38.60
2019-03-22T12:40:48.834Z,39.20
2019-03-22T12:43:22.117Z,39.20
2019-03-22T12:45:55.505Z,39.30
2019-03-22T12:48:28.766Z,39.30
2019-03-22T12:51:02.244Z,40.30
2019-03-22T12:53:35.587Z,40.00
2019-03-22T12:56:09.057Z,40.50
2019-03-22T12:58:42.419Z,40.60
2019-03-22T13:01:16.091Z,41.10
2019-03-22T13:03:49.413Z,41.30
2019-03-22T13:06:22.835Z,40.90
2019-03-22T13:08:56.593Z,41.00
2019-03-22T13:11:29.998Z,41.20
2019-03-22T13:14:03.479Z,41.70
2019-03-22T13:16:36.878Z,41.90
2019-03-22T13:19:10.175Z,41.40
2019-03-22T13:21:43.535Z,41.50
2019-03-22T13:24:16.828Z,41.10
2019-03-22T13:26:50.113Z,40.70
2019-03-22T13:29:23.585Z,41.40
2019-03-22T13:31:57.045Z,41.20
2019-03-22T13:34:30.750Z,41.50
2019-03-22T13:37:03.945Z,41.70
2019-03-22T13:39:37.473Z,41.60
2019-03-22T13:42:11.052Z,42.20
2019-03-22T13:44:44.670Z,42.00
2019-03-22T13:47:18.141Z,41.60
2019-03-22T13:49:51.452Z,42.10
2019-03-22T13:52:25.266Z,42.20
2019-03-22T13:54:58.710Z,42.40
2019-03-22T13:57:32.026Z,43.00
2019-03-22T14:00:06.650Z,42.40
2019-03-22T14:02:40.385Z,42.70
2019-03-22T14:05:13.907Z,42.90
2019-03-22T14:07:47.278Z,42.60
2019-03-22T14:10:39.329Z,43.00
2019-03-22T14:13:13.008Z,43.40
2019-03-22T14:15:46.396Z,43.90
2019-03-22T14:18:19.546Z,43.40
2019-03-22T14:20:52.951Z,43.70
2019-03-22T14:23:26.191Z,43.30
2019-03-22T14:25:59.541Z,43.80
2019-03-22T14:28:32.947Z,43.40
2019-03-22T14:31:06.515Z,43.50
2019-03-22T14:33:39.906Z,43.70
2019-03-22T14:36:13.303Z,43.50
2019-03-22T14:38:46.764Z,43.40
2019-03-22T14:41:20.110Z,43.70
2019-03-22T14:43:53.466Z,43.60
2019-03-22T14:46:26.816Z,43.80
2019-03-22T14:49:00.237Z,43.90
2019-03-22T14:51:33.567Z,43.80
2019-03-22T14:54:08.429Z,43.80
2019-03-22T14:56:41.799Z,44.50
2019-03-22T14:59:15.834Z,45.00
2019-03-22T15:01:49.120Z,45.10
2019-03-22T15:04:22.392Z,45.60
2019-03-22T15:06:55.707Z,45.30
2019-03-22T15:09:29.033Z,44.60
2019-03-22T15:12:02.420Z,45.40
2019-03-22T15:14:44.374Z,46.00
2019-03-22T15:17:43.968Z,46.10
2019-03-22T15:20:45.301Z,45.90
2019-03-22T15:23:35.094Z,45.70
2019-03-22T15:26:25.744Z,46.10
2019-03-22T15:29:23.655Z,45.90
2019-03-22T15:32:14.588Z,46.10
2019-03-22T15:35:09.842Z,46.20
2019-03-22T15:38:19.078Z,46.60
2019-03-22T15:40:52.547Z,47.60
2019-03-22T15:43:25.858Z,47.70
2019-03-22T15:45:59.336Z,48.10
2019-03-22T15:48:32.721Z,48.30
2019-03-22T15:51:06.262Z,48.40
2019-03-22T15:53:39.632Z,48.90
2019-03-22T15:56:13.111Z,48.40
2019-03-22T15:58:46.421Z,48.20
2019-03-22T16:01:19.884Z,48.40
2019-03-22T16:03:53.172Z,49.50
2019-03-22T16:06:26.818Z,50.30
2019-03-22T16:09:00.091Z,50.50
2019-03-22T16:11:33.528Z,50.80
2019-03-22T16:14:06.980Z,51.00
2019-03-22T16:16:40.380Z,51.40
2019-03-22T16:19:32.346Z,51.60
2019-03-22T16:22:05.959Z,52.20
2019-03-22T16:24:39.241Z,53.10
2019-03-22T16:27:12.892Z,53.40
2019-03-22T16:29:46.345Z,53.10
2019-03-22T16:32:19.764Z,52.80
2019-03-22T16:34:53.033Z,53.30
2019-03-22T16:37:26.389Z,54.20
2019-03-22T16:39:59.650Z,55.20
2019-03-22T16:42:33.042Z,56.00
2019-03-22T16:45:07.251Z,56.50
2019-03-22T16:47:40.814Z,57.30
2019-03-22T16:50:25.685Z,57.70
2019-03-22T16:52:58.937Z,58.20
2019-03-22T16:55:32.655Z,58.60
2019-03-22T16:58:06.524Z,59.00
2019-03-22T17:00:40.126Z,59.30
2019-03-22T17:03:13.810Z,59.60
2019-03-22T17:05:47.342Z,59.80
2019-03-22T17:08:20.503Z,59.90
2019-03-22T17:10:53.776Z,60.20
2019-03-22T17:13:27.159Z,61.20
2019-03-22T17:16:02.012Z,61.80
2019-03-22T17:18:35.706Z,62.80
2019-03-22T17:21:09.136Z,63.70
2019-03-22T17:23:42.846Z,64.30
2019-03-22T17:26:16.595Z,65.10
2019-03-22T17:28:50.813Z,66.10
2019-03-22T17:31:24.210Z,66.50
2019-03-22T17:33:57.511Z,66.80
2019-03-22T17:36:30.980Z,67.10
2019-03-22T17:39:05.878Z,67.50
2019-03-22T17:41:39.251Z,67.70
2019-03-22T17:44:12.747Z,68.50
2019-03-22T17:46:46.244Z,69.50
2019-03-22T17:49:20.448Z,71.00
2019-03-22T17:51:54.182Z,70.60
2019-03-22T17:54:27.454Z,71.00
2019-03-22T17:57:01.912Z,71.40
2019-03-22T17:59:35.518Z,71.60
2019-03-22T18:02:09.153Z,71.80
2019-03-22T18:04:42.765Z,72.60
2019-03-22T18:07:16.401Z,72.80
2019-03-22T18:09:49.893Z,72.60
2019-03-22T18:12:23.239Z,72.90
2019-03-22T18:14:56.485Z,73.60
2019-03-22T18:17:29.910Z,73.70
2019-03-22T18:20:03.876Z,74.00
2019-03-22T18:22:38.419Z,74.90
2019-03-22T18:25:12.058Z,75.10
2019-03-22T18:27:45.591Z,75.30
2019-03-22T18:30:19.231Z,76.10
2019-03-22T18:32:52.818Z,77.10
2019-03-22T18:35:26.273Z,78.00
2019-03-22T18:37:59.936Z,78.50
2019-03-22T18:40:33.225Z,79.40
2019-03-22T18:43:07.958Z,79.90
2019-03-22T18:45:41.479Z,80.30
2019-03-22T18:48:15.081Z,81.00
2019-03-22T18:50:56.293Z,81.30
2019-03-22T18:53:24.020Z,82.40
2019-03-22T18:55:57.456Z,82.70
2019-03-22T18:58:30.945Z,82.80
2019-03-22T19:01:04.261Z,83.00
2019-03-22T19:03:37.628Z,83.30
2019-03-22T19:06:10.859Z,83.30
2019-03-22T19:08:44.299Z,83.20
2019-03-22T19:11:17.783Z,83.80
2019-03-22T19:13:51.375Z,84.10
2019-03-22T19:16:24.844Z,84.60
2019-03-22T19:18:58.324Z,85.20
2019-03-22T19:21:31.965Z,86.10
2019-03-22T19:24:05.732Z,86.70
2019-03-22T19:26:39.815Z,86.60
2019-03-22T19:29:13.310Z,86.30
2019-03-22T19:31:46.543Z,86.90
2019-03-22T19:34:19.859Z,87.00
2019-03-22T19:36:53.236Z,86.90
2019-03-22T19:39:26.657Z,87.20
2019-03-22T19:42:00.195Z,87.10
2019-03-22T19:44:33.854Z,86.90
2019-03-22T19:47:07.329Z,87.80
2019-03-22T19:49:40.656Z,88.90
2019-03-22T19:52:14.040Z,89.30
2019-03-22T19:54:47.523Z,89.80
2019-03-22T19:57:21.104Z,90.00
2019-03-22T19:59:54.665Z,90.30
2019-03-22T20:02:28.250Z,90.10
2019-03-22T20:05:05.067Z,90.50
2019-03-22T20:07:37.102Z,90.70
2019-03-22T20:10:11.987Z,90.70
2019-03-22T20:12:45.451Z,90.60
2019-03-22T20:15:18.916Z,90.90
2019-03-22T20:17:52.221Z,90.90
2019-03-22T20:20:25.906Z,91.50
2019-03-22T20:22:59.433Z,91.80
2019-03-22T20:25:40.580Z,91.90
2019-03-22T20:28:13.908Z,92.10
2019-03-22T20:30:47.542Z,92.70
2019-03-22T20:33:20.966Z,93.40
2019-03-22T20:35:54.547Z,93.50
2019-03-22T20:38:28.071Z,94.10
2019-03-22T20:41:01.763Z,94.20
2019-03-22T20:43:35.712Z,94.00
2019-03-22T20:46:09.045Z,93.50
2019-03-22T20:48:42.645Z,94.00
2019-03-22T20:51:15.975Z,94.90
2019-03-22T20:53:49.450Z,94.80
2019-03-22T20:56:22.885Z,95.10
2019-03-22T20:58:56.253Z,94.80
2019-03-22T21:01:29.769Z,95.50
2019-03-22T21:04:04.681Z,95.50
2019-03-22T21:06:38.130Z,95.50
2019-03-22T21:09:11.473Z,95.80
2019-03-22T21:11:45.091Z,96.30
2019-03-22T21:14:18.796Z,95.70
2019-03-22T21:16:51.999Z,96.20
2019-03-22T21:19:25.606Z,95.50
2019-03-22T21:21:59.168Z,95.60
2019-03-22T21:24:32.538Z,96.10
2019-03-22T21:27:15.141Z,96.40
2019-03-22T21:29:44.273Z,96.50
2019-03-22T21:32:16.498Z,96.40
2019-03-22T21:34:49.700Z,96.40
2019-03-22T21:37:23.070Z,96.50
2019-03-22T21:39:56.579Z,96.60
2019-03-22T21:42:30.192Z,96.80
2019-03-22T21:45:03.750Z,96.90
2019-03-22T21:47:38.360Z,97.50
2019-03-22T21:50:11.751Z,97.30
2019-03-22T21:52:45.351Z,97.90
2019-03-22T21:55:18.767Z,98.30
2019-03-22T21:57:52.438Z,97.90
2019-03-22T22:00:25.837Z,98.30
2019-03-22T22:02:59.328Z,98.70
2019-03-22T22:05:33.025Z,97.90
2019-03-22T22:08:06.396Z,97.90
2019-03-22T22:10:40.387Z,98.70
2019-03-22T22:13:14.305Z,98.60
2019-03-22T22:15:47.924Z,98.40
2019-03-22T22:18:21.229Z,98.50
2019-03-22T22:20:54.562Z,98.90
2019-03-22T22:23:39.865Z,99.20
2019-03-22T22:26:23.625Z,99.40
2019-03-22T22:28:57.426Z,99.20
2019-03-22T22:31:30.777Z,99.20
2019-03-22T22:34:04.015Z,99.20
2019-03-22T22:36:37.493Z,99.20
2019-03-22T22:39:10.839Z,99.30
2019-03-22T22:41:44.189Z,99.30
2019-03-22T22:44:17.516Z,99.50
2019-03-22T22:46:50.811Z,99.90
2019-03-22T22:49:35.730Z,99.90
2019-03-22T22:52:27.858Z,99.90
2019-03-22T22:55:01.280Z,99.90
2019-03-22T22:57:34.754Z,99.90
2019-03-22T23:00:12.055Z,99.90
2019-03-22T23:03:03.962Z,99.90
2019-03-22T23:05:37.765Z,99.90
2019-03-22T23:08:11.478Z,99.90
2019-03-22T23:10:44.772Z,99.90
2019-03-22T23:13:18.220Z,99.90
2019-03-22T23:15:51.731Z,99.90
2019-03-22T23:18:24.990Z,99.90
2019-03-22T23:20:59.025Z,99.90
2019-03-22T23:23:32.328Z,99.90
2019-03-22T23:26:05.756Z,99.90
2019-03-22T23:28:39.155Z,99.90
2019-03-22T23:31:12.575Z,99.90
2019-03-22T23:33:46.039Z,99.90
2019-03-22T23:36:20.659Z,99.90
2019-03-22T23:39:01.538Z,99.90
2019-03-22T23:41:34.843Z,99.90
2019-03-22T23:44:14.013Z,99.90
2019-03-22T23:46:59.395Z,99.90
2019-03-22T23:49:35.836Z,99.90
2019-03-22T23:52:09.240Z,99.90
2019-03-22T23:54:42.860Z,99.90
2019-03-22T23:57:16.491Z,99.90
2019-03-22T23:59:49.711Z,99.90
